Time;durP1;ratioP1;P1;durP2;ratioP2;P2;SDS_P1;SDS_P2;PMS_P1;PMS_P2;Temp;Humidity;BMP_temperature;BMP_pressure;BME280_temperature;BME280_humidity;BME280_pressure;Samples;Min_cycle;Max_cycle;Signal;HPM_P1;HPM_P2
2022/03/16 00:02:13;;;;;;;;;;;4.40;99.90;;;;;;5090311;28;19919;-49
2022/03/16 00:04:39;;;;;;;;;;;4.30;99.90;;;;;;5098159;28;19919;-49
2022/03/16 00:07:04;;;;;;;;;;;4.30;99.90;;;;;;5101629;28;19994;-49
2022/03/16 00:09:30;;;;;;;;;;;4.20;99.90;;;;;;5094745;28;20316;-49
2022/03/16 00:11:55;;;;;;;;;;;4.20;99.90;;;;;;5095660;28;19924;-50
2022/03/16 00:14:20;;;;;;;;;;;4.20;99.90;;;;;;5075528;28;19967;-50
2022/03/16 00:16:46;;;;;;;;;;;4.20;99.90;;;;;;5102030;28;19927;-48
2022/03/16 00:19:11;;;;;;;;;;;4.20;99.90;;;;;;5090268;28;19975;-49
2022/03/16 00:21:37;;;;;;;;;;;4.20;99.90;;;;;;5099473;28;20022;-49
2022/03/16 00:24:02;;;;;;;;;;;4.20;99.90;;;;;;5068447;28;19920;-48
2022/03/16 00:26:28;;;;;;;;;;;4.10;99.90;;;;;;5101335;28;19920;-49
2022/03/16 00:28:53;;;;;;;;;;;4.20;99.90;;;;;;5090261;28;19928;-51
2022/03/16 00:31:19;;;;;;;;;;;4.10;99.90;;;;;;5087784;28;19920;-52
2022/03/16 00:33:44;;;;;;;;;;;4.10;99.90;;;;;;5082832;28;19974;-49
2022/03/16 00:36:10;;;;;;;;;;;4.10;99.90;;;;;;5095032;28;19932;-53
2022/03/16 00:38:35;;;;;;;;;;;4.10;99.90;;;;;;5090590;28;20050;-50
2022/03/16 00:41:01;;;;;;;;;;;4.00;99.90;;;;;;5100965;28;19920;-50
2022/03/16 00:43:27;;;;;;;;;;;4.00;99.90;;;;;;5105501;28;19965;-51
2022/03/16 00:45:52;;;;;;;;;;;4.10;99.90;;;;;;5105657;28;19920;-51
2022/03/16 00:48:18;;;;;;;;;;;4.10;99.90;;;;;;5082449;28;19927;-48
2022/03/16 00:50:43;;;;;;;;;;;4.10;99.90;;;;;;5076590;28;19920;-51
2022/03/16 00:53:09;;;;;;;;;;;4.00;99.90;;;;;;5101115;28;19920;-52
2022/03/16 00:55:34;;;;;;;;;;;3.90;99.90;;;;;;5094002;28;19932;-49
2022/03/16 00:58:01;;;;;;;;;;;3.80;99.90;;;;;;5076762;28;19969;-52
2022/03/16 01:00:26;;;;;;;;;;;3.80;99.90;;;;;;5091689;28;19920;-49
2022/03/16 01:02:53;;;;;;;;;;;3.90;99.90;;;;;;5094709;28;19920;-49
2022/03/16 01:05:19;;;;;;;;;;;3.80;99.90;;;;;;5094093;28;19920;-49
2022/03/16 01:07:44;;;;;;;;;;;3.90;99.90;;;;;;5092149;28;19972;-52
2022/03/16 01:10:10;;;;;;;;;;;3.90;99.90;;;;;;5075588;28;19932;-50
2022/03/16 01:12:35;;;;;;;;;;;3.80;99.90;;;;;;5091386;28;20145;-51
2022/03/16 01:15:01;;;;;;;;;;;3.70;99.90;;;;;;5092016;28;19997;-49
2022/03/16 01:17:26;;;;;;;;;;;3.70;99.90;;;;;;5092475;28;20276;-48
2022/03/16 01:19:52;;;;;;;;;;;3.80;99.90;;;;;;5064569;28;19927;-49
2022/03/16 01:22:17;;;;;;;;;;;3.80;99.90;;;;;;5094450;28;20351;-49
2022/03/16 01:24:42;;;;;;;;;;;3.80;99.90;;;;;;5092946;28;19927;-50
2022/03/16 01:27:08;;;;;;;;;;;3.90;99.90;;;;;;5094711;28;19920;-54
2022/03/16 01:29:33;;;;;;;;;;;4.00;99.90;;;;;;5091757;28;19919;-53
2022/03/16 01:31:59;;;;;;;;;;;4.10;99.90;;;;;;5087941;28;19938;-50
2022/03/16 01:34:24;;;;;;;;;;;4.00;99.90;;;;;;5091236;28;19927;-49
2022/03/16 01:36:50;;;;;;;;;;;3.90;99.90;;;;;;5091751;28;19920;-50
2022/03/16 01:39:15;;;;;;;;;;;4.00;99.90;;;;;;5089477;28;19920;-51
2022/03/16 01:41:44;;;;;;;;;;;4.00;99.90;;;;;;5101303;28;20414;-49
2022/03/16 01:44:10;;;;;;;;;;;4.00;99.90;;;;;;5076165;28;19920;-50
2022/03/16 01:46:35;;;;;;;;;;;3.80;99.90;;;;;;5075844;28;19920;-52
2022/03/16 01:49:02;;;;;;;;;;;3.70;99.90;;;;;;5096632;28;19977;-50
2022/03/16 01:51:27;;;;;;;;;;;3.60;99.90;;;;;;5098268;28;19992;-49
2022/03/16 01:53:53;;;;;;;;;;;3.70;99.90;;;;;;5105805;28;19953;-49
2022/03/16 01:56:18;;;;;;;;;;;3.70;99.90;;;;;;5099981;28;19928;-53
2022/03/16 01:58:44;;;;;;;;;;;3.70;99.90;;;;;;5101868;28;19920;-50
2022/03/16 02:01:09;;;;;;;;;;;3.70;99.90;;;;;;5097621;28;19920;-50
2022/03/16 02:03:35;;;;;;;;;;;3.70;99.90;;;;;;5083192;28;20384;-49
2022/03/16 02:06:01;;;;;;;;;;;3.70;99.90;;;;;;5108133;28;19935;-49
2022/03/16 02:08:28;;;;;;;;;;;3.70;99.90;;;;;;5106775;28;19919;-49
2022/03/16 02:10:53;;;;;;;;;;;3.70;99.90;;;;;;5096722;28;19920;-53
2022/03/16 02:13:19;;;;;;;;;;;3.70;99.90;;;;;;5104806;28;19954;-50
2022/03/16 02:15:44;;;;;;;;;;;3.70;99.90;;;;;;5100953;28;19919;-51
2022/03/16 02:18:09;;;;;;;;;;;3.60;99.90;;;;;;5101581;28;19973;-49
2022/03/16 02:20:35;;;;;;;;;;;3.60;99.90;;;;;;5100027;28;20010;-49
2022/03/16 02:23:07;;;;;;;;;;;3.60;99.90;;;;;;5099415;28;19927;-49
2022/03/16 02:25:33;;;;;;;;;;;3.50;99.90;;;;;;5101204;28;20068;-53
2022/03/16 02:27:59;;;;;;;;;;;3.40;99.90;;;;;;5106072;28;20002;-51
2022/03/16 02:30:25;;;;;;;;;;;3.40;99.90;;;;;;5089211;28;20019;-52
2022/03/16 02:32:51;;;;;;;;;;;3.40;99.90;;;;;;5094075;28;19927;-51
2022/03/16 02:35:17;;;;;;;;;;;3.50;99.90;;;;;;5098208;28;19928;-51
2022/03/16 02:37:43;;;;;;;;;;;3.40;99.90;;;;;;5108622;28;19920;-51
2022/03/16 02:40:17;;;;;;;;;;;3.30;99.90;;;;;;5096083;28;19980;-49
2022/03/16 02:42:42;;;;;;;;;;;3.30;99.90;;;;;;5105605;28;19942;-50
2022/03/16 02:45:08;;;;;;;;;;;3.20;99.90;;;;;;5094543;28;19920;-52
2022/03/16 02:47:34;;;;;;;;;;;3.30;99.90;;;;;;5100203;28;19920;-54
2022/03/16 02:50:00;;;;;;;;;;;3.30;99.90;;;;;;5101942;28;20011;-51
2022/03/16 02:52:26;;;;;;;;;;;3.20;99.90;;;;;;5074591;28;19959;-50
2022/03/16 02:54:51;;;;;;;;;;;3.20;99.90;;;;;;5093607;28;20016;-52
2022/03/16 02:57:17;;;;;;;;;;;3.20;99.90;;;;;;5098893;28;19986;-49
2022/03/16 02:59:43;;;;;;;;;;;3.20;99.90;;;;;;5069712;28;20399;-49
2022/03/16 03:02:08;;;;;;;;;;;3.20;99.90;;;;;;5094650;28;20002;-51
2022/03/16 03:04:34;;;;;;;;;;;3.10;99.90;;;;;;5093544;28;20309;-53
2022/03/16 03:06:59;;;;;;;;;;;3.10;99.90;;;;;;5091876;28;19971;-51
2022/03/16 03:09:25;;;;;;;;;;;3.20;99.90;;;;;;5089940;28;19931;-50
2022/03/16 03:11:51;;;;;;;;;;;3.20;99.90;;;;;;5092594;28;20344;-51
2022/03/16 03:14:17;;;;;;;;;;;3.20;99.90;;;;;;5099479;28;20392;-49
2022/03/16 03:16:42;;;;;;;;;;;3.20;99.90;;;;;;5056477;28;20744;-50
2022/03/16 03:19:08;;;;;;;;;;;3.20;99.90;;;;;;5076201;28;19920;-49
2022/03/16 03:21:33;;;;;;;;;;;3.20;99.90;;;;;;5070313;28;19931;-50
2022/03/16 03:23:59;;;;;;;;;;;3.20;99.90;;;;;;5088929;28;19929;-49
2022/03/16 03:26:24;;;;;;;;;;;3.20;99.90;;;;;;5089057;28;19924;-49
2022/03/16 03:28:50;;;;;;;;;;;3.20;99.90;;;;;;5097717;28;19934;-48
2022/03/16 03:31:15;;;;;;;;;;;3.10;99.90;;;;;;5089415;28;19920;-48
2022/03/16 03:33:41;;;;;;;;;;;3.10;99.90;;;;;;5071677;28;19923;-49
2022/03/16 03:36:06;;;;;;;;;;;3.10;99.90;;;;;;5091525;28;19920;-48
2022/03/16 03:38:31;;;;;;;;;;;3.10;99.90;;;;;;5095856;28;19920;-49
2022/03/16 03:40:57;;;;;;;;;;;3.10;99.90;;;;;;5096839;28;19927;-49
2022/03/16 03:43:22;;;;;;;;;;;3.10;99.90;;;;;;5090521;28;19920;-49
2022/03/16 03:45:48;;;;;;;;;;;3.10;99.90;;;;;;5075137;28;19928;-49
2022/03/16 03:48:14;;;;;;;;;;;3.20;99.90;;;;;;5087876;28;20007;-50
2022/03/16 03:50:39;;;;;;;;;;;3.20;99.90;;;;;;5096258;28;19955;-50
2022/03/16 03:53:05;;;;;;;;;;;3.20;99.90;;;;;;5103244;28;20494;-48
2022/03/16 03:55:30;;;;;;;;;;;3.10;99.90;;;;;;5116590;28;19927;-49
2022/03/16 03:57:57;;;;;;;;;;;3.00;99.90;;;;;;5112083;28;19920;-48
2022/03/16 04:00:23;;;;;;;;;;;3.00;99.90;;;;;;5110461;28;19943;-49
2022/03/16 04:02:49;;;;;;;;;;;3.00;99.90;;;;;;5108611;28;20349;-48
2022/03/16 04:05:17;;;;;;;;;;;2.90;99.90;;;;;;5112833;28;20317;-49
2022/03/16 04:07:43;;;;;;;;;;;3.00;99.90;;;;;;5110297;28;19927;-48
2022/03/16 04:10:09;;;;;;;;;;;2.90;99.90;;;;;;5115194;28;19920;-48
2022/03/16 04:12:34;;;;;;;;;;;2.90;99.90;;;;;;5109106;28;19926;-49
2022/03/16 04:15:00;;;;;;;;;;;2.90;99.90;;;;;;5113944;28;19919;-49
2022/03/16 04:17:25;;;;;;;;;;;2.80;99.90;;;;;;5108836;28;20064;-48
2022/03/16 04:19:51;;;;;;;;;;;2.80;99.90;;;;;;5114184;28;19946;-49
2022/03/16 04:22:16;;;;;;;;;;;2.70;99.90;;;;;;5107981;28;20083;-49
2022/03/16 04:24:42;;;;;;;;;;;2.80;99.90;;;;;;5104845;28;19927;-48
2022/03/16 04:27:07;;;;;;;;;;;2.70;99.90;;;;;;5106299;27;19939;-53
2022/03/16 04:29:33;;;;;;;;;;;2.70;99.90;;;;;;5105668;27;19988;-49
2022/03/16 04:31:58;;;;;;;;;;;2.60;99.90;;;;;;5107568;27;20033;-49
2022/03/16 04:34:24;;;;;;;;;;;2.60;99.90;;;;;;5107389;27;19924;-50
2022/03/16 04:36:49;;;;;;;;;;;2.60;99.90;;;;;;5109091;27;19980;-50
2022/03/16 04:39:16;;;;;;;;;;;2.60;99.90;;;;;;5087098;27;19924;-49
2022/03/16 04:41:42;;;;;;;;;;;2.60;99.90;;;;;;5108819;27;20011;-48
2022/03/16 04:44:07;;;;;;;;;;;2.60;99.90;;;;;;5111447;27;19942;-48
2022/03/16 04:46:33;;;;;;;;;;;2.50;99.90;;;;;;5112866;27;19931;-49
2022/03/16 04:48:58;;;;;;;;;;;2.50;99.90;;;;;;5095565;27;20285;-49
2022/03/16 04:51:24;;;;;;;;;;;2.40;99.90;;;;;;5111604;27;19965;-48
2022/03/16 04:53:49;;;;;;;;;;;2.40;99.90;;;;;;5109459;27;20519;-48
2022/03/16 04:56:15;;;;;;;;;;;2.40;99.90;;;;;;5114885;27;19935;-48
2022/03/16 04:58:40;;;;;;;;;;;2.40;99.90;;;;;;5109152;27;19927;-49
2022/03/16 05:01:06;;;;;;;;;;;2.30;99.90;;;;;;5111497;27;19920;-49
2022/03/16 05:03:31;;;;;;;;;;;2.30;99.90;;;;;;5115797;27;20395;-48
2022/03/16 05:05:58;;;;;;;;;;;2.30;99.90;;;;;;5113123;27;19926;-49
2022/03/16 05:08:23;;;;;;;;;;;2.20;99.90;;;;;;5120662;27;20378;-48
2022/03/16 05:10:49;;;;;;;;;;;2.10;99.90;;;;;;5093512;27;19935;-48
2022/03/16 05:13:14;;;;;;;;;;;2.20;99.90;;;;;;5111420;27;20010;-48
2022/03/16 05:15:40;;;;;;;;;;;2.20;99.90;;;;;;5112692;27;19927;-49
2022/03/16 05:18:05;;;;;;;;;;;2.20;99.90;;;;;;5113793;27;19919;-50
2022/03/16 05:20:31;;;;;;;;;;;2.20;99.90;;;;;;5126335;27;19919;-51
2022/03/16 05:22:56;;;;;;;;;;;2.20;99.90;;;;;;5095828;27;20440;-49
2022/03/16 05:25:23;;;;;;;;;;;2.20;99.90;;;;;;5111849;27;19928;-49
2022/03/16 05:27:49;;;;;;;;;;;2.20;99.90;;;;;;5095132;28;19920;-48
2022/03/16 05:30:14;;;;;;;;;;;2.10;99.90;;;;;;5124111;27;19923;-49
2022/03/16 05:32:41;;;;;;;;;;;2.10;99.90;;;;;;5120006;27;20385;-50
2022/03/16 05:35:07;;;;;;;;;;;2.00;99.90;;;;;;5114453;27;20048;-54
2022/03/16 05:37:33;;;;;;;;;;;2.00;99.90;;;;;;5113722;27;19942;-49
2022/03/16 05:39:58;;;;;;;;;;;2.00;99.90;;;;;;5119473;27;20382;-50
2022/03/16 05:42:24;;;;;;;;;;;2.00;99.90;;;;;;5119522;27;19938;-50
2022/03/16 05:44:54;;;;;;;;;;;2.00;99.90;;;;;;5112485;27;19920;-49
2022/03/16 05:47:20;;;;;;;;;;;2.00;99.90;;;;;;5110697;27;19919;-49
2022/03/16 05:49:46;;;;;;;;;;;2.00;99.90;;;;;;5112701;27;19942;-49
2022/03/16 05:52:12;;;;;;;;;;;2.00;99.90;;;;;;5112983;27;20388;-49
2022/03/16 05:54:38;;;;;;;;;;;2.00;99.90;;;;;;5104865;28;19931;-49
2022/03/16 05:57:03;;;;;;;;;;;2.00;99.90;;;;;;5071624;28;19920;-50
2022/03/16 05:59:29;;;;;;;;;;;2.00;99.90;;;;;;5092546;28;19951;-49
2022/03/16 06:01:54;;;;;;;;;;;2.10;99.90;;;;;;5085739;28;19919;-49
2022/03/16 06:04:19;;;;;;;;;;;2.20;99.90;;;;;;5099200;28;19931;-49
2022/03/16 06:06:45;;;;;;;;;;;2.20;99.90;;;;;;5076547;28;19923;-51
2022/03/16 06:09:10;;;;;;;;;;;2.20;99.90;;;;;;5106160;28;20014;-52
2022/03/16 06:11:39;;;;;;;;;;;2.20;99.90;;;;;;5097801;28;19973;-49
2022/03/16 06:14:04;;;;;;;;;;;2.30;99.90;;;;;;5103933;28;20382;-49
2022/03/16 06:16:29;;;;;;;;;;;2.30;99.90;;;;;;5101160;28;19930;-48
2022/03/16 06:18:55;;;;;;;;;;;2.40;99.90;;;;;;5096099;28;19920;-48
2022/03/16 06:21:20;;;;;;;;;;;2.50;99.90;;;;;;5096366;28;20006;-49
2022/03/16 06:23:46;;;;;;;;;;;2.60;99.90;;;;;;5105915;28;19973;-52
2022/03/16 06:26:11;;;;;;;;;;;2.70;99.90;;;;;;5066045;28;20296;-51
2022/03/16 06:28:37;;;;;;;;;;;2.80;99.90;;;;;;5107182;28;19971;-49
2022/03/16 06:31:03;;;;;;;;;;;2.90;99.90;;;;;;5104811;28;19955;-50
2022/03/16 06:33:29;;;;;;;;;;;3.10;99.90;;;;;;5104288;28;20325;-50
2022/03/16 06:35:55;;;;;;;;;;;3.20;99.90;;;;;;5100377;28;19981;-51
2022/03/16 06:38:20;;;;;;;;;;;3.40;99.90;;;;;;5098833;28;19932;-49
2022/03/16 06:40:46;;;;;;;;;;;3.50;99.90;;;;;;5091089;28;19981;-49
2022/03/16 06:43:11;;;;;;;;;;;3.70;99.90;;;;;;5096217;28;19931;-49
2022/03/16 06:45:37;;;;;;;;;;;3.90;99.90;;;;;;5103168;28;20439;-51
2022/03/16 06:48:02;;;;;;;;;;;4.10;99.90;;;;;;5100022;28;19920;-52
2022/03/16 06:50:28;;;;;;;;;;;4.30;99.90;;;;;;5093123;28;20064;-49
2022/03/16 06:52:54;;;;;;;;;;;4.40;99.90;;;;;;5096371;28;19920;-50
2022/03/16 06:55:20;;;;;;;;;;;4.50;99.90;;;;;;5091246;28;19920;-49
2022/03/16 06:57:46;;;;;;;;;;;4.50;99.90;;;;;;5087939;28;20298;-48
2022/03/16 07:00:13;;;;;;;;;;;4.50;99.90;;;;;;5095039;28;19928;-49
2022/03/16 07:02:57;;;;;;;;;;;4.50;99.90;;;;;;5092182;28;19926;-50
2022/03/16 07:05:27;;;;;;;;;;;4.60;99.90;;;;;;5090136;28;19985;-49
2022/03/16 07:07:54;;;;;;;;;;;4.60;99.90;;;;;;5076526;28;19919;-49
2022/03/16 07:10:20;;;;;;;;;;;4.70;99.90;;;;;;5088318;28;20381;-48
2022/03/16 07:12:45;;;;;;;;;;;4.70;99.90;;;;;;5096449;28;19930;-52
2022/03/16 07:15:11;;;;;;;;;;;4.80;99.90;;;;;;5092279;28;19920;-49
2022/03/16 07:17:37;;;;;;;;;;;4.80;99.90;;;;;;5097175;28;20361;-49
2022/03/16 07:20:04;;;;;;;;;;;4.90;99.90;;;;;;5092526;28;19927;-49
2022/03/16 07:22:29;;;;;;;;;;;4.90;99.90;;;;;;5086370;28;19928;-51
2022/03/16 07:24:55;;;;;;;;;;;5.00;99.90;;;;;;5095432;28;19924;-48
2022/03/16 07:27:20;;;;;;;;;;;5.10;99.90;;;;;;5089773;28;19966;-48
2022/03/16 07:29:46;;;;;;;;;;;5.30;99.90;;;;;;5086772;28;19932;-50
2022/03/16 07:32:11;;;;;;;;;;;5.40;99.90;;;;;;5085192;28;19926;-49
2022/03/16 07:34:37;;;;;;;;;;;5.60;99.90;;;;;;5090701;28;20454;-52
2022/03/16 07:37:03;;;;;;;;;;;5.80;99.90;;;;;;5092732;28;19972;-48
2022/03/16 07:39:28;;;;;;;;;;;5.90;99.90;;;;;;5087869;28;19959;-49
2022/03/16 07:41:53;;;;;;;;;;;6.10;99.90;;;;;;5095494;28;20006;-48
2022/03/16 07:44:19;;;;;;;;;;;6.20;99.90;;;;;;5087547;28;20354;-49
2022/03/16 07:46:44;;;;;;;;;;;6.30;99.90;;;;;;5093143;28;19973;-49
2022/03/16 07:49:10;;;;;;;;;;;6.40;99.90;;;;;;5095895;28;20015;-49
2022/03/16 07:51:35;;;;;;;;;;;6.50;99.90;;;;;;5091199;28;19927;-49
2022/03/16 07:54:01;;;;;;;;;;;6.50;99.90;;;;;;5101531;28;19930;-48
2022/03/16 07:56:26;;;;;;;;;;;6.70;99.90;;;;;;5093601;28;19927;-49
2022/03/16 07:58:54;;;;;;;;;;;6.70;99.90;;;;;;5094529;28;19985;-50
2022/03/16 08:01:19;;;;;;;;;;;6.80;99.90;;;;;;5095723;28;19920;-49
2022/03/16 08:03:46;;;;;;;;;;;6.90;99.90;;;;;;5096629;28;20267;-49
2022/03/16 08:06:12;;;;;;;;;;;7.00;99.90;;;;;;5097318;28;19962;-49
2022/03/16 08:08:40;;;;;;;;;;;7.10;99.90;;;;;;5094946;28;19928;-53
2022/03/16 08:11:06;;;;;;;;;;;7.40;99.90;;;;;;5092773;28;20054;-50
2022/03/16 08:13:32;;;;;;;;;;;7.40;99.90;;;;;;5100488;28;19939;-49
2022/03/16 08:15:57;;;;;;;;;;;7.60;99.90;;;;;;5077866;28;20363;-52
2022/03/16 08:18:23;;;;;;;;;;;7.60;99.90;;;;;;5075968;28;19930;-50
2022/03/16 08:20:48;;;;;;;;;;;7.70;99.90;;;;;;5095971;28;20340;-50
2022/03/16 08:23:14;;;;;;;;;;;7.70;99.90;;;;;;5091226;28;19931;-49
2022/03/16 08:25:40;;;;;;;;;;;7.80;99.90;;;;;;5077373;28;19985;-51
2022/03/16 08:28:06;;;;;;;;;;;7.90;99.90;;;;;;5095289;28;19954;-52
2022/03/16 08:30:34;;;;;;;;;;;8.00;99.90;;;;;;5095424;28;19920;-50
2022/03/16 08:33:00;;;;;;;;;;;8.30;99.90;;;;;;5095022;28;20316;-50
2022/03/16 08:35:25;;;;;;;;;;;8.40;99.90;;;;;;5094885;28;19920;-50
2022/03/16 08:37:51;;;;;;;;;;;8.60;99.90;;;;;;5093435;28;19920;-50
2022/03/16 08:40:16;;;;;;;;;;;8.60;99.90;;;;;;5102619;28;20360;-51
2022/03/16 08:42:43;;;;;;;;;;;8.60;99.90;;;;;;5099268;28;19927;-49
2022/03/16 08:45:08;;;;;;;;;;;8.80;99.90;;;;;;5093697;28;20004;-49
2022/03/16 08:47:34;;;;;;;;;;;8.60;99.90;;;;;;5075972;28;20008;-50
2022/03/16 08:50:00;;;;;;;;;;;8.70;99.90;;;;;;5075310;28;19978;-50
2022/03/16 08:52:25;;;;;;;;;;;8.80;99.90;;;;;;5094286;28;19928;-50
2022/03/16 08:54:51;;;;;;;;;;;8.80;99.90;;;;;;5095152;28;19924;-49
2022/03/16 08:57:17;;;;;;;;;;;8.80;99.90;;;;;;5094790;28;19920;-50
2022/03/16 08:59:42;;;;;;;;;;;8.90;99.90;;;;;;5093711;28;19972;-49
2022/03/16 09:02:08;;;;;;;;;;;9.00;99.90;;;;;;5095010;28;20065;-49
2022/03/16 09:04:34;;;;;;;;;;;9.00;99.90;;;;;;5093683;28;20360;-49
2022/03/16 09:06:59;;;;;;;;;;;9.10;99.90;;;;;;5075048;28;19920;-50
2022/03/16 09:09:25;;;;;;;;;;;9.30;99.90;;;;;;5080985;28;20416;-50
2022/03/16 09:11:51;;;;;;;;;;;9.50;99.90;;;;;;5094933;28;20082;-50
2022/03/16 09:14:16;;;;;;;;;;;9.70;99.90;;;;;;5095112;28;19920;-49
2022/03/16 09:16:44;;;;;;;;;;;9.70;99.90;;;;;;5085243;28;19921;-50
2022/03/16 09:19:10;;;;;;;;;;;10.00;99.90;;;;;;5077666;28;19927;-50
2022/03/16 09:21:35;;;;;;;;;;;10.10;99.90;;;;;;5093674;28;19920;-50
2022/03/16 09:24:01;;;;;;;;;;;10.30;99.90;;;;;;5088358;28;19921;-50
2022/03/16 09:26:27;;;;;;;;;;;10.30;99.90;;;;;;5092292;28;19926;-50
2022/03/16 09:28:52;;;;;;;;;;;10.30;99.90;;;;;;5073792;28;20385;-50
2022/03/16 09:31:18;;;;;;;;;;;10.40;99.90;;;;;;5089198;28;19962;-53
2022/03/16 09:33:43;;;;;;;;;;;10.60;99.90;;;;;;5079407;28;20338;-53
2022/03/16 09:36:09;;;;;;;;;;;10.70;99.90;;;;;;5081679;28;19931;-48
2022/03/16 09:38:35;;;;;;;;;;;10.90;99.90;;;;;;5088066;28;19920;-51
2022/03/16 09:41:02;;;;;;;;;;;11.00;99.90;;;;;;5082990;28;19920;-53
2022/03/16 09:43:30;;;;;;;;;;;11.10;99.90;;;;;;5082069;28;20001;-51
2022/03/16 09:45:56;;;;;;;;;;;11.30;99.90;;;;;;5063139;28;20057;-50
2022/03/16 09:48:23;;;;;;;;;;;11.40;99.90;;;;;;5073784;28;19920;-52
2022/03/16 09:50:53;;;;;;;;;;;11.50;99.90;;;;;;5088761;28;20327;-51
2022/03/16 09:53:19;;;;;;;;;;;11.50;99.90;;;;;;5111428;28;19920;-52
2022/03/16 09:55:45;;;;;;;;;;;11.60;99.90;;;;;;5106158;28;20306;-49
2022/03/16 09:58:11;;;;;;;;;;;11.70;99.90;;;;;;5093716;28;20022;-52
2022/03/16 10:00:38;;;;;;;;;;;12.00;99.90;;;;;;5095101;28;19923;-49
2022/03/16 10:03:04;;;;;;;;;;;12.00;99.90;;;;;;5093784;28;19920;-51
2022/03/16 10:05:30;;;;;;;;;;;12.20;99.90;;;;;;5094363;28;20006;-49
2022/03/16 10:07:59;;;;;;;;;;;12.10;99.90;;;;;;5099385;28;19966;-50
2022/03/16 10:13:21;;;;;;;;;;;12.30;99.90;;;;;;5113443;28;19994;-49
2022/03/16 10:15:47;;;;;;;;;;;12.20;99.90;;;;;;5106663;28;20281;-49
2022/03/16 10:18:16;;;;;;;;;;;12.20;99.90;;;;;;5093555;28;19926;-50
2022/03/16 10:20:43;;;;;;;;;;;12.30;99.90;;;;;;5101946;28;19920;-49
2022/03/16 10:23:10;;;;;;;;;;;12.30;99.90;;;;;;5102735;28;19988;-48
2022/03/16 10:25:40;;;;;;;;;;;12.30;99.90;;;;;;5089225;28;19942;-48
2022/03/16 10:28:11;;;;;;;;;;;12.40;99.90;;;;;;5111332;28;19926;-48
2022/03/16 10:30:37;;;;;;;;;;;12.50;99.90;;;;;;5110633;28;20048;-48
2022/03/16 10:33:03;;;;;;;;;;;12.40;99.90;;;;;;5113378;28;19920;-48
2022/03/16 10:35:28;;;;;;;;;;;12.50;99.90;;;;;;5098367;28;19966;-49
2022/03/16 10:38:06;;;;;;;;;;;12.50;99.90;;;;;;5094260;28;19965;-49
2022/03/16 10:40:32;;;;;;;;;;;12.50;99.90;;;;;;5095640;28;19984;-52
2022/03/16 10:48:25;;;;;;;;;;;12.90;99.90;;;;;;5084741;28;19959;-49
2022/03/16 10:50:56;;;;;;;;;;;12.90;99.90;;;;;;5104903;28;20338;-52
2022/03/16 10:53:28;;;;;;;;;;;12.90;99.90;;;;;;5105452;27;19937;-49
2022/03/16 10:55:55;;;;;;;;;;;13.00;99.90;;;;;;5125303;27;19923;-50
2022/03/16 10:58:21;;;;;;;;;;;13.00;99.90;;;;;;5120920;27;19919;-52
2022/03/16 11:00:47;;;;;;;;;;;13.00;99.90;;;;;;5117034;27;20351;-50
2022/03/16 11:03:17;;;;;;;;;;;13.10;99.90;;;;;;5129490;27;19919;-52
2022/03/16 11:05:43;;;;;;;;;;;13.30;99.90;;;;;;5116530;27;20014;-50
2022/03/16 11:08:09;;;;;;;;;;;13.50;99.90;;;;;;5125657;27;19963;-50
2022/03/16 11:10:35;;;;;;;;;;;13.40;99.90;;;;;;5094679;28;19920;-50
2022/03/16 11:15:47;;;;;;;;;;;13.50;99.90;;;;;;5124371;27;20365;-50
2022/03/16 11:18:12;;;;;;;;;;;13.60;99.90;;;;;;5117767;27;20266;-51
2022/03/16 11:20:38;;;;;;;;;;;13.70;99.90;;;;;;5118962;27;19934;-53
2022/03/16 11:26:11;;;;;;;;;;;13.90;99.90;;;;;;5118453;27;20052;-51
2022/03/16 11:29:06;;;;;;;;;;;14.00;99.70;;;;;;5117244;27;19919;-49
2022/03/16 11:31:32;;;;;;;;;;;14.10;99.30;;;;;;5106773;27;19964;-48
2022/03/16 11:33:58;;;;;;;;;;;14.20;99.20;;;;;;5123531;27;19931;-48
2022/03/16 11:36:28;;;;;;;;;;;14.30;99.60;;;;;;5117283;27;20308;-48
2022/03/16 11:38:53;;;;;;;;;;;14.30;98.80;;;;;;5101195;27;19920;-48
2022/03/16 11:41:26;;;;;;;;;;;14.50;98.90;;;;;;5109835;28;19926;-48
2022/03/16 11:44:01;;;;;;;;;;;14.40;94.60;;;;;;5077108;28;20437;-49
2022/03/16 11:46:28;;;;;;;;;;;14.30;93.60;;;;;;5111605;28;19926;-48
2022/03/16 11:49:00;;;;;;;;;;;14.50;93.50;;;;;;5112215;28;19920;-50
2022/03/16 11:51:26;;;;;;;;;;;14.30;92.80;;;;;;5118908;28;19942;-49
2022/03/16 11:53:57;;;;;;;;;;;14.50;94.60;;;;;;5105616;28;20365;-51
2022/03/16 11:56:36;;;;;;;;;;;14.50;93.60;;;;;;5093338;28;19924;-49
2022/03/16 11:59:06;;;;;;;;;;;14.60;94.30;;;;;;5098746;28;20425;-53
2022/03/16 12:01:33;;;;;;;;;;;14.40;91.20;;;;;;5087604;28;19926;-50
2022/03/16 12:04:19;;;;;;;;;;;14.60;95.10;;;;;;5078736;28;19988;-50
2022/03/16 12:06:53;;;;;;;;;;;14.60;91.00;;;;;;5097432;28;19964;-53
2022/03/16 12:09:29;;;;;;;;;;;14.50;89.20;;;;;;5100255;28;19927;-50
2022/03/16 12:14:56;;;;;;;;;;;14.50;90.40;;;;;;5094431;28;19924;-49
2022/03/16 12:17:22;;;;;;;;;;;14.70;90.90;;;;;;5090561;28;19919;-51
2022/03/16 12:20:09;;;;;;;;;;;14.80;93.60;;;;;;5095310;28;19919;-51
2022/03/16 12:22:36;;;;;;;;;;;14.80;92.40;;;;;;5093232;28;19920;-49
2022/03/16 12:25:21;;;;;;;;;;;14.80;91.80;;;;;;5093602;28;19928;-53
2022/03/16 12:30:52;;;;;;;;;;;14.90;93.40;;;;;;5024489;28;19936;-51
2022/03/16 12:33:22;;;;;;;;;;;14.80;87.20;;;;;;5022784;28;19921;-51
2022/03/16 12:35:51;;;;;;;;;;;14.70;88.40;;;;;;5023691;28;19925;-53
2022/03/16 12:38:17;;;;;;;;;;;14.60;89.40;;;;;;5018889;28;19921;-54
2022/03/16 12:43:27;;;;;;;;;;;14.60;90.20;;;;;;5020836;28;19936;-52
2022/03/16 12:46:00;;;;;;;;;;;14.70;91.10;;;;;;5017195;28;20438;-49
2022/03/16 12:48:26;;;;;;;;;;;14.70;91.10;;;;;;5002623;28;20387;-51
2022/03/16 12:50:52;;;;;;;;;;;14.70;91.00;;;;;;4996854;28;19929;-51
2022/03/16 12:53:44;;;;;;;;;;;14.80;92.10;;;;;;5027471;28;19932;-50
2022/03/16 12:56:11;;;;;;;;;;;14.80;90.50;;;;;;5027780;28;20350;-49
2022/03/16 12:58:37;;;;;;;;;;;14.80;92.10;;;;;;5020937;28;19929;-49
2022/03/16 13:01:03;;;;;;;;;;;14.80;92.30;;;;;;5046431;28;19927;-52
2022/03/16 13:03:28;;;;;;;;;;;14.60;92.30;;;;;;5093505;28;19926;-49
2022/03/16 13:05:54;;;;;;;;;;;14.50;93.30;;;;;;5094641;28;19939;-50
2022/03/16 13:08:20;;;;;;;;;;;14.60;94.00;;;;;;5076569;28;19920;-51
2022/03/16 13:13:29;;;;;;;;;;;14.70;94.80;;;;;;5094784;28;19999;-51
2022/03/16 13:16:00;;;;;;;;;;;14.80;94.10;;;;;;5094686;28;20006;-52
2022/03/16 13:18:32;;;;;;;;;;;14.80;92.80;;;;;;5094454;28;19923;-54
2022/03/16 13:20:58;;;;;;;;;;;14.80;92.50;;;;;;5094382;28;20101;-53
2022/03/16 13:23:32;;;;;;;;;;;14.90;93.10;;;;;;5093288;28;20112;-51
2022/03/16 13:26:10;;;;;;;;;;;14.80;92.60;;;;;;5109563;28;19935;-53
2022/03/16 13:28:37;;;;;;;;;;;14.60;93.70;;;;;;5091893;28;20384;-53
2022/03/16 13:31:03;;;;;;;;;;;14.60;94.30;;;;;;5111836;28;20029;-51
2022/03/16 13:33:28;;;;;;;;;;;14.70;94.10;;;;;;5110089;28;19970;-52
2022/03/16 13:36:10;;;;;;;;;;;14.90;95.10;;;;;;5098958;28;20285;-48
2022/03/16 13:38:37;;;;;;;;;;;15.00;93.80;;;;;;5091390;28;19923;-52
2022/03/16 13:41:15;;;;;;;;;;;14.80;92.80;;;;;;5093957;28;19974;-53
2022/03/16 13:43:41;;;;;;;;;;;14.70;92.60;;;;;;5077236;28;19931;-53
2022/03/16 13:46:09;;;;;;;;;;;14.70;93.30;;;;;;5095294;28;19920;-50
2022/03/16 13:48:41;;;;;;;;;;;14.80;94.80;;;;;;5100579;28;19919;-49
2022/03/16 13:51:07;;;;;;;;;;;15.00;95.00;;;;;;5114764;28;19919;-51
2022/03/16 13:53:43;;;;;;;;;;;15.00;94.00;;;;;;5099062;28;19920;-50
2022/03/16 13:56:13;;;;;;;;;;;14.90;93.20;;;;;;5101682;28;19915;-51
2022/03/16 13:58:42;;;;;;;;;;;15.00;92.10;;;;;;5106320;28;19923;-53
2022/03/16 14:01:08;;;;;;;;;;;15.00;93.10;;;;;;5099750;28;20014;-51
2022/03/16 14:03:33;;;;;;;;;;;15.00;93.50;;;;;;5095880;28;20064;-51
2022/03/16 14:06:10;;;;;;;;;;;14.90;92.90;;;;;;5089505;28;19935;-50
2022/03/16 14:08:36;;;;;;;;;;;14.80;92.70;;;;;;5090260;28;19967;-51
2022/03/16 14:11:02;;;;;;;;;;;14.80;95.40;;;;;;5088746;28;20031;-51
2022/03/16 14:13:29;;;;;;;;;;;14.80;93.70;;;;;;5088392;28;19980;-49
2022/03/16 14:16:21;;;;;;;;;;;14.80;94.90;;;;;;5079843;28;19974;-51
2022/03/16 14:18:46;;;;;;;;;;;14.70;94.50;;;;;;5073923;28;20046;-50
2022/03/16 14:21:12;;;;;;;;;;;14.60;92.60;;;;;;5087985;28;20026;-51
2022/03/16 14:23:37;;;;;;;;;;;14.50;92.90;;;;;;5070623;28;19927;-54
2022/03/16 14:26:04;;;;;;;;;;;14.50;94.30;;;;;;5088486;28;19920;-50
2022/03/16 14:28:30;;;;;;;;;;;14.40;94.60;;;;;;5083942;28;19945;-52
2022/03/16 14:30:55;;;;;;;;;;;14.50;95.60;;;;;;5087262;28;19919;-52
2022/03/16 14:33:26;;;;;;;;;;;14.40;94.50;;;;;;5081773;28;20321;-52
2022/03/16 14:35:54;;;;;;;;;;;14.30;94.30;;;;;;5075374;28;19981;-49
2022/03/16 14:38:20;;;;;;;;;;;14.30;94.70;;;;;;5092772;28;19971;-51
2022/03/16 14:40:54;;;;;;;;;;;14.30;95.90;;;;;;5086578;28;20020;-50
2022/03/16 14:43:21;;;;;;;;;;;14.20;95.40;;;;;;5085463;28;20379;-49
2022/03/16 14:45:46;;;;;;;;;;;14.20;96.30;;;;;;5089332;28;19919;-50
2022/03/16 14:48:12;;;;;;;;;;;14.30;96.60;;;;;;5090618;28;19927;-49
2022/03/16 14:50:37;;;;;;;;;;;14.30;96.40;;;;;;5109560;28;19949;-49